Terminal Aerodrome Forecast
Issued by NWS Twin Cities, MN

Home | Current Version | Previous Version | Graphics & Text | Print | Product List | Glossary On
Versions: 1 2 3 4 5 6 7 8 9 10 11 12 13 14 15 16 17 18 19
323
FTUS43 KMPX 270520
TAFSTC
TAF
KSTC 270520Z 2706/2806 VRB03KT P6SM SCT250
     FM271300 09004KT P6SM -SHRA OVC050
      TEMPO 2714/2718 -TSRA OVC020CB
     FM272200 VRB06KT P6SM OVC050=

USA.gov is the U.S. government's official web portal to all federal, state and local government web resources and services.